sensor_id;sensor_type;location;lat;lon;timestamp;P1;durP1;ratioP1;P2;durP2;ratioP2
4508;SDS011;2267;48.816;9.230;2023-07-16T00:00:30;2.90;;;2.03;;
4508;SDS011;2267;48.816;9.230;2023-07-16T00:02:57;4.50;;;1.77;;
4508;SDS011;2267;48.816;9.230;2023-07-16T00:05:25;3.60;;;1.50;;
4508;SDS011;2267;48.816;9.230;2023-07-16T00:07:51;2.70;;;1.80;;
4508;SDS011;2267;48.816;9.230;2023-07-16T00:10:18;2.47;;;1.43;;
4508;SDS011;2267;48.816;9.230;2023-07-16T00:12:45;1.80;;;1.27;;
4508;SDS011;2267;48.816;9.230;2023-07-16T00:15:12;3.93;;;1.50;;
4508;SDS011;2267;48.816;9.230;2023-07-16T00:17:39;1.80;;;1.20;;
4508;SDS011;2267;48.816;9.230;2023-07-16T00:20:06;1.90;;;1.53;;
4508;SDS011;2267;48.816;9.230;2023-07-16T00:22:33;2.37;;;1.30;;
4508;SDS011;2267;48.816;9.230;2023-07-16T00:25:00;3.27;;;1.70;;
4508;SDS011;2267;48.816;9.230;2023-07-16T00:27:27;3.13;;;1.43;;
4508;SDS011;2267;48.816;9.230;2023-07-16T00:29:54;2.60;;;1.33;;
4508;SDS011;2267;48.816;9.230;2023-07-16T00:32:21;1.80;;;1.10;;
4508;SDS011;2267;48.816;9.230;2023-07-16T00:34:48;1.97;;;1.17;;
4508;SDS011;2267;48.816;9.230;2023-07-16T00:37:14;2.33;;;1.20;;
4508;SDS011;2267;48.816;9.230;2023-07-16T00:39:41;2.53;;;1.20;;
4508;SDS011;2267;48.816;9.230;2023-07-16T00:42:08;1.70;;;0.97;;
4508;SDS011;2267;48.816;9.230;2023-07-16T00:44:35;2.10;;;0.90;;
4508;SDS011;2267;48.816;9.230;2023-07-16T00:47:02;2.80;;;1.20;;
4508;SDS011;2267;48.816;9.230;2023-07-16T00:49:29;2.50;;;0.90;;
4508;SDS011;2267;48.816;9.230;2023-07-16T00:51:56;2.00;;;1.00;;
4508;SDS011;2267;48.816;9.230;2023-07-16T00:54:24;1.70;;;0.80;;
4508;SDS011;2267;48.816;9.230;2023-07-16T00:56:51;2.30;;;0.93;;
4508;SDS011;2267;48.816;9.230;2023-07-16T00:59:18;5.70;;;1.10;;
4508;SDS011;2267;48.816;9.230;2023-07-16T01:01:45;3.07;;;1.00;;
4508;SDS011;2267;48.816;9.230;2023-07-16T01:04:12;2.40;;;1.00;;
4508;SDS011;2267;48.816;9.230;2023-07-16T01:06:48;1.83;;;1.00;;
4508;SDS011;2267;48.816;9.230;2023-07-16T01:09:20;1.73;;;1.10;;
4508;SDS011;2267;48.816;9.230;2023-07-16T01:11:48;3.53;;;1.10;;
4508;SDS011;2267;48.816;9.230;2023-07-16T01:14:16;1.70;;;0.93;;
4508;SDS011;2267;48.816;9.230;2023-07-16T01:16:44;4.23;;;1.40;;
4508;SDS011;2267;48.816;9.230;2023-07-16T01:19:11;1.80;;;1.07;;
4508;SDS011;2267;48.816;9.230;2023-07-16T01:21:57;2.30;;;0.93;;
4508;SDS011;2267;48.816;9.230;2023-07-16T01:30:22;1.90;;;1.00;;
4508;SDS011;2267;48.816;9.230;2023-07-16T01:32:50;2.90;;;1.40;;
4508;SDS011;2267;48.816;9.230;2023-07-16T01:35:17;1.87;;;1.17;;
4508;SDS011;2267;48.816;9.230;2023-07-16T01:37:45;2.07;;;0.90;;
4508;SDS011;2267;48.816;9.230;2023-07-16T01:40:11;2.00;;;1.00;;
4508;SDS011;2267;48.816;9.230;2023-07-16T01:42:39;2.47;;;1.10;;
4508;SDS011;2267;48.816;9.230;2023-07-16T01:45:06;1.73;;;1.00;;
4508;SDS011;2267;48.816;9.230;2023-07-16T01:47:43;1.80;;;1.00;;
4508;SDS011;2267;48.816;9.230;2023-07-16T01:50:14;2.10;;;1.10;;
4508;SDS011;2267;48.816;9.230;2023-07-16T01:52:41;1.90;;;1.20;;
4508;SDS011;2267;48.816;9.230;2023-07-16T01:55:08;1.80;;;1.20;;
4508;SDS011;2267;48.816;9.230;2023-07-16T01:57:35;1.80;;;1.10;;
4508;SDS011;2267;48.816;9.230;2023-07-16T02:00:02;2.60;;;1.30;;
4508;SDS011;2267;48.816;9.230;2023-07-16T02:02:29;2.70;;;1.20;;
4508;SDS011;2267;48.816;9.230;2023-07-16T02:04:56;3.33;;;1.50;;
4508;SDS011;2267;48.816;9.230;2023-07-16T02:07:23;2.00;;;1.00;;
4508;SDS011;2267;48.816;9.230;2023-07-16T02:09:50;2.10;;;1.30;;
4508;SDS011;2267;48.816;9.230;2023-07-16T02:12:17;2.00;;;1.23;;
4508;SDS011;2267;48.816;9.230;2023-07-16T02:14:44;1.77;;;1.10;;
4508;SDS011;2267;48.816;9.230;2023-07-16T02:17:11;2.83;;;1.17;;
4508;SDS011;2267;48.816;9.230;2023-07-16T02:19:37;2.20;;;1.27;;
4508;SDS011;2267;48.816;9.230;2023-07-16T02:22:04;3.20;;;1.20;;
4508;SDS011;2267;48.816;9.230;2023-07-16T02:24:31;2.47;;;1.10;;
4508;SDS011;2267;48.816;9.230;2023-07-16T02:26:58;2.40;;;1.20;;
4508;SDS011;2267;48.816;9.230;2023-07-16T02:29:25;1.90;;;1.10;;
4508;SDS011;2267;48.816;9.230;2023-07-16T02:31:51;2.63;;;1.20;;
4508;SDS011;2267;48.816;9.230;2023-07-16T02:34:18;5.50;;;1.20;;
4508;SDS011;2267;48.816;9.230;2023-07-16T02:36:45;2.33;;;1.47;;
4508;SDS011;2267;48.816;9.230;2023-07-16T02:39:12;2.33;;;1.23;;
4508;SDS011;2267;48.816;9.230;2023-07-16T02:41:39;2.00;;;1.20;;
4508;SDS011;2267;48.816;9.230;2023-07-16T02:44:06;1.77;;;1.10;;
4508;SDS011;2267;48.816;9.230;2023-07-16T02:46:32;3.23;;;1.40;;
4508;SDS011;2267;48.816;9.230;2023-07-16T02:49:00;2.50;;;1.40;;
4508;SDS011;2267;48.816;9.230;2023-07-16T02:51:29;2.20;;;1.30;;
4508;SDS011;2267;48.816;9.230;2023-07-16T02:53:55;2.33;;;1.23;;
4508;SDS011;2267;48.816;9.230;2023-07-16T02:56:22;2.20;;;1.27;;
4508;SDS011;2267;48.816;9.230;2023-07-16T02:58:49;3.23;;;1.50;;
4508;SDS011;2267;48.816;9.230;2023-07-16T03:01:16;2.37;;;1.30;;
4508;SDS011;2267;48.816;9.230;2023-07-16T03:03:43;1.87;;;1.20;;
4508;SDS011;2267;48.816;9.230;2023-07-16T03:06:10;2.17;;;1.53;;
4508;SDS011;2267;48.816;9.230;2023-07-16T03:08:36;2.20;;;1.43;;
4508;SDS011;2267;48.816;9.230;2023-07-16T03:11:03;3.50;;;1.50;;
4508;SDS011;2267;48.816;9.230;2023-07-16T03:13:30;4.57;;;1.47;;
4508;SDS011;2267;48.816;9.230;2023-07-16T03:15:57;2.30;;;1.30;;
4508;SDS011;2267;48.816;9.230;2023-07-16T03:18:27;2.30;;;1.40;;
4508;SDS011;2267;48.816;9.230;2023-07-16T03:20:56;1.80;;;1.20;;
4508;SDS011;2267;48.816;9.230;2023-07-16T03:23:24;2.37;;;1.57;;
4508;SDS011;2267;48.816;9.230;2023-07-16T03:25:51;4.20;;;1.30;;
4508;SDS011;2267;48.816;9.230;2023-07-16T03:28:18;3.17;;;1.30;;
4508;SDS011;2267;48.816;9.230;2023-07-16T03:30:48;2.00;;;1.30;;
4508;SDS011;2267;48.816;9.230;2023-07-16T03:33:16;1.87;;;1.10;;
4508;SDS011;2267;48.816;9.230;2023-07-16T03:35:43;3.03;;;1.40;;
4508;SDS011;2267;48.816;9.230;2023-07-16T03:38:11;2.40;;;1.43;;
4508;SDS011;2267;48.816;9.230;2023-07-16T03:40:38;4.37;;;1.70;;
4508;SDS011;2267;48.816;9.230;2023-07-16T03:43:05;2.67;;;1.30;;
4508;SDS011;2267;48.816;9.230;2023-07-16T03:45:32;2.10;;;1.20;;
4508;SDS011;2267;48.816;9.230;2023-07-16T03:47:59;2.77;;;1.67;;
4508;SDS011;2267;48.816;9.230;2023-07-16T03:50:26;5.00;;;1.80;;
4508;SDS011;2267;48.816;9.230;2023-07-16T03:52:53;3.57;;;1.83;;
4508;SDS011;2267;48.816;9.230;2023-07-16T03:55:20;3.47;;;1.67;;
4508;SDS011;2267;48.816;9.230;2023-07-16T03:57:47;2.67;;;1.47;;
4508;SDS011;2267;48.816;9.230;2023-07-16T04:00:14;2.73;;;1.27;;
4508;SDS011;2267;48.816;9.230;2023-07-16T04:02:41;3.27;;;1.87;;
4508;SDS011;2267;48.816;9.230;2023-07-16T04:05:08;2.30;;;1.33;;
4508;SDS011;2267;48.816;9.230;2023-07-16T04:07:35;2.90;;;1.60;;
4508;SDS011;2267;48.816;9.230;2023-07-16T04:10:02;3.63;;;1.57;;
4508;SDS011;2267;48.816;9.230;2023-07-16T04:12:29;2.20;;;1.50;;
4508;SDS011;2267;48.816;9.230;2023-07-16T04:14:57;4.90;;;1.60;;
4508;SDS011;2267;48.816;9.230;2023-07-16T04:17:24;4.23;;;1.80;;
4508;SDS011;2267;48.816;9.230;2023-07-16T04:19:52;3.73;;;2.07;;
4508;SDS011;2267;48.816;9.230;2023-07-16T04:22:18;3.90;;;2.00;;
4508;SDS011;2267;48.816;9.230;2023-07-16T04:24:46;3.13;;;1.87;;
4508;SDS011;2267;48.816;9.230;2023-07-16T04:27:12;2.53;;;1.43;;
4508;SDS011;2267;48.816;9.230;2023-07-16T04:29:39;2.73;;;1.53;;
4508;SDS011;2267;48.816;9.230;2023-07-16T04:32:06;4.00;;;1.67;;
4508;SDS011;2267;48.816;9.230;2023-07-16T04:34:33;3.20;;;1.60;;
4508;SDS011;2267;48.816;9.230;2023-07-16T04:37:00;4.17;;;1.93;;
4508;SDS011;2267;48.816;9.230;2023-07-16T04:39:27;3.60;;;1.70;;
4508;SDS011;2267;48.816;9.230;2023-07-16T04:41:53;3.43;;;1.90;;
4508;SDS011;2267;48.816;9.230;2023-07-16T04:44:23;3.53;;;1.50;;
4508;SDS011;2267;48.816;9.230;2023-07-16T04:46:50;2.87;;;1.60;;
4508;SDS011;2267;48.816;9.230;2023-07-16T04:49:17;3.40;;;1.93;;
4508;SDS011;2267;48.816;9.230;2023-07-16T04:51:43;4.20;;;2.00;;
4508;SDS011;2267;48.816;9.230;2023-07-16T04:54:10;4.30;;;2.20;;
4508;SDS011;2267;48.816;9.230;2023-07-16T04:56:37;2.57;;;1.63;;
4508;SDS011;2267;48.816;9.230;2023-07-16T04:59:04;4.20;;;2.07;;
4508;SDS011;2267;48.816;9.230;2023-07-16T05:01:31;4.00;;;1.57;;
4508;SDS011;2267;48.816;9.230;2023-07-16T05:03:58;3.17;;;1.87;;
4508;SDS011;2267;48.816;9.230;2023-07-16T05:06:25;2.60;;;1.43;;
4508;SDS011;2267;48.816;9.230;2023-07-16T05:08:51;3.80;;;1.80;;
4508;SDS011;2267;48.816;9.230;2023-07-16T05:11:18;3.20;;;1.40;;
4508;SDS011;2267;48.816;9.230;2023-07-16T05:13:45;3.00;;;1.70;;
4508;SDS011;2267;48.816;9.230;2023-07-16T05:16:12;3.17;;;1.87;;
4508;SDS011;2267;48.816;9.230;2023-07-16T05:18:39;3.20;;;1.90;;
4508;SDS011;2267;48.816;9.230;2023-07-16T05:21:06;3.50;;;1.87;;
4508;SDS011;2267;48.816;9.230;2023-07-16T05:23:33;2.70;;;1.77;;
4508;SDS011;2267;48.816;9.230;2023-07-16T05:26:00;3.97;;;1.90;;
4508;SDS011;2267;48.816;9.230;2023-07-16T05:28:27;4.30;;;1.97;;
4508;SDS011;2267;48.816;9.230;2023-07-16T05:30:57;2.60;;;2.00;;
4508;SDS011;2267;48.816;9.230;2023-07-16T05:33:25;2.37;;;1.67;;
4508;SDS011;2267;48.816;9.230;2023-07-16T05:35:52;3.30;;;1.73;;
4508;SDS011;2267;48.816;9.230;2023-07-16T05:38:19;3.87;;;1.87;;
4508;SDS011;2267;48.816;9.230;2023-07-16T05:40:45;3.30;;;1.90;;
4508;SDS011;2267;48.816;9.230;2023-07-16T05:43:12;3.20;;;2.13;;
4508;SDS011;2267;48.816;9.230;2023-07-16T05:45:40;3.10;;;1.63;;
4508;SDS011;2267;48.816;9.230;2023-07-16T05:48:08;2.63;;;2.13;;
4508;SDS011;2267;48.816;9.230;2023-07-16T05:50:35;2.87;;;1.87;;
4508;SDS011;2267;48.816;9.230;2023-07-16T05:53:01;3.73;;;1.87;;
4508;SDS011;2267;48.816;9.230;2023-07-16T05:55:28;3.60;;;1.60;;
4508;SDS011;2267;48.816;9.230;2023-07-16T05:57:55;3.00;;;1.80;;
4508;SDS011;2267;48.816;9.230;2023-07-16T06:00:22;3.00;;;1.83;;
4508;SDS011;2267;48.816;9.230;2023-07-16T06:02:48;4.43;;;1.87;;
4508;SDS011;2267;48.816;9.230;2023-07-16T06:05:15;3.50;;;1.53;;
4508;SDS011;2267;48.816;9.230;2023-07-16T06:07:43;3.93;;;1.70;;
4508;SDS011;2267;48.816;9.230;2023-07-16T06:10:10;3.30;;;1.40;;
4508;SDS011;2267;48.816;9.230;2023-07-16T06:12:37;3.47;;;1.63;;
4508;SDS011;2267;48.816;9.230;2023-07-16T06:15:04;4.87;;;1.90;;
4508;SDS011;2267;48.816;9.230;2023-07-16T06:17:31;4.73;;;1.60;;
4508;SDS011;2267;48.816;9.230;2023-07-16T06:19:58;8.20;;;1.97;;
4508;SDS011;2267;48.816;9.230;2023-07-16T06:22:25;3.27;;;1.80;;
4508;SDS011;2267;48.816;9.230;2023-07-16T06:24:52;7.03;;;2.00;;
4508;SDS011;2267;48.816;9.230;2023-07-16T06:27:19;2.70;;;1.70;;
4508;SDS011;2267;48.816;9.230;2023-07-16T06:29:45;6.97;;;2.30;;
4508;SDS011;2267;48.816;9.230;2023-07-16T06:32:12;4.50;;;2.07;;
4508;SDS011;2267;48.816;9.230;2023-07-16T06:34:39;5.70;;;2.27;;
4508;SDS011;2267;48.816;9.230;2023-07-16T06:37:06;5.70;;;1.87;;
4508;SDS011;2267;48.816;9.230;2023-07-16T06:39:33;4.90;;;1.90;;
4508;SDS011;2267;48.816;9.230;2023-07-16T06:42:00;3.93;;;2.40;;
4508;SDS011;2267;48.816;9.230;2023-07-16T06:44:27;3.67;;;1.83;;
4508;SDS011;2267;48.816;9.230;2023-07-16T06:46:53;2.50;;;1.70;;
4508;SDS011;2267;48.816;9.230;2023-07-16T06:49:21;4.90;;;2.20;;
4508;SDS011;2267;48.816;9.230;2023-07-16T06:51:48;5.23;;;1.60;;
4508;SDS011;2267;48.816;9.230;2023-07-16T06:54:14;3.93;;;1.83;;
4508;SDS011;2267;48.816;9.230;2023-07-16T06:56:41;3.90;;;1.80;;
4508;SDS011;2267;48.816;9.230;2023-07-16T06:59:08;3.77;;;1.90;;
4508;SDS011;2267;48.816;9.230;2023-07-16T07:01:35;3.90;;;2.07;;
4508;SDS011;2267;48.816;9.230;2023-07-16T07:04:02;3.60;;;2.03;;
4508;SDS011;2267;48.816;9.230;2023-07-16T07:06:28;2.97;;;1.70;;
4508;SDS011;2267;48.816;9.230;2023-07-16T07:08:55;4.70;;;2.17;;
4508;SDS011;2267;48.816;9.230;2023-07-16T07:11:22;3.10;;;1.70;;
4508;SDS011;2267;48.816;9.230;2023-07-16T07:13:49;3.23;;;1.80;;
4508;SDS011;2267;48.816;9.230;2023-07-16T07:16:18;3.40;;;2.00;;
4508;SDS011;2267;48.816;9.230;2023-07-16T07:18:46;4.70;;;2.47;;
4508;SDS011;2267;48.816;9.230;2023-07-16T07:21:13;3.53;;;1.57;;
4508;SDS011;2267;48.816;9.230;2023-07-16T07:23:39;3.73;;;1.67;;
4508;SDS011;2267;48.816;9.230;2023-07-16T07:26:06;2.63;;;1.97;;
4508;SDS011;2267;48.816;9.230;2023-07-16T07:28:33;4.13;;;1.67;;
4508;SDS011;2267;48.816;9.230;2023-07-16T07:31:00;5.90;;;2.10;;
4508;SDS011;2267;48.816;9.230;2023-07-16T07:33:27;2.67;;;1.43;;
4508;SDS011;2267;48.816;9.230;2023-07-16T07:35:55;2.80;;;1.90;;
4508;SDS011;2267;48.816;9.230;2023-07-16T07:38:22;3.43;;;1.87;;
4508;SDS011;2267;48.816;9.230;2023-07-16T07:40:49;4.53;;;1.73;;
4508;SDS011;2267;48.816;9.230;2023-07-16T07:43:16;5.60;;;2.30;;
4508;SDS011;2267;48.816;9.230;2023-07-16T07:45:43;4.80;;;1.33;;
4508;SDS011;2267;48.816;9.230;2023-07-16T07:48:10;3.10;;;1.70;;
4508;SDS011;2267;48.816;9.230;2023-07-16T07:50:37;6.60;;;1.50;;
4508;SDS011;2267;48.816;9.230;2023-07-16T07:53:04;3.03;;;1.37;;
4508;SDS011;2267;48.816;9.230;2023-07-16T07:55:33;5.20;;;2.47;;
4508;SDS011;2267;48.816;9.230;2023-07-16T07:58:01;4.63;;;2.27;;
4508;SDS011;2267;48.816;9.230;2023-07-16T08:00:28;5.57;;;1.97;;
4508;SDS011;2267;48.816;9.230;2023-07-16T08:02:55;3.47;;;1.50;;
4508;SDS011;2267;48.816;9.230;2023-07-16T08:05:22;5.03;;;1.70;;
4508;SDS011;2267;48.816;9.230;2023-07-16T08:07:49;4.90;;;1.70;;
4508;SDS011;2267;48.816;9.230;2023-07-16T08:10:16;3.83;;;1.80;;
4508;SDS011;2267;48.816;9.230;2023-07-16T08:12:42;2.50;;;1.67;;
4508;SDS011;2267;48.816;9.230;2023-07-16T08:15:10;5.80;;;2.33;;
4508;SDS011;2267;48.816;9.230;2023-07-16T08:17:43;2.87;;;1.87;;
4508;SDS011;2267;48.816;9.230;2023-07-16T08:20:11;7.10;;;1.97;;
4508;SDS011;2267;48.816;9.230;2023-07-16T08:22:39;2.80;;;1.73;;
4508;SDS011;2267;48.816;9.230;2023-07-16T08:25:06;5.47;;;1.93;;
4508;SDS011;2267;48.816;9.230;2023-07-16T08:27:33;3.33;;;1.90;;
4508;SDS011;2267;48.816;9.230;2023-07-16T08:30:01;4.10;;;1.60;;
4508;SDS011;2267;48.816;9.230;2023-07-16T08:32:28;5.77;;;2.40;;
4508;SDS011;2267;48.816;9.230;2023-07-16T08:34:55;4.33;;;1.87;;
4508;SDS011;2267;48.816;9.230;2023-07-16T08:37:22;2.83;;;1.67;;
4508;SDS011;2267;48.816;9.230;2023-07-16T08:39:52;3.27;;;1.83;;
4508;SDS011;2267;48.816;9.230;2023-07-16T08:42:20;3.87;;;1.90;;
4508;SDS011;2267;48.816;9.230;2023-07-16T08:44:50;2.53;;;1.67;;
4508;SDS011;2267;48.816;9.230;2023-07-16T08:47:17;3.80;;;1.80;;
4508;SDS011;2267;48.816;9.230;2023-07-16T08:49:54;3.40;;;2.10;;
4508;SDS011;2267;48.816;9.230;2023-07-16T08:52:24;2.87;;;1.53;;
4508;SDS011;2267;48.816;9.230;2023-07-16T08:54:54;3.43;;;1.80;;
4508;SDS011;2267;48.816;9.230;2023-07-16T08:57:21;4.10;;;2.10;;
4508;SDS011;2267;48.816;9.230;2023-07-16T08:59:49;3.20;;;1.60;;
4508;SDS011;2267;48.816;9.230;2023-07-16T09:02:17;3.33;;;1.73;;
4508;SDS011;2267;48.816;9.230;2023-07-16T09:04:48;3.13;;;1.73;;
4508;SDS011;2267;48.816;9.230;2023-07-16T09:07:17;2.40;;;1.70;;
4508;SDS011;2267;48.816;9.230;2023-07-16T09:09:59;2.33;;;1.47;;
4508;SDS011;2267;48.816;9.230;2023-07-16T09:12:27;3.87;;;1.90;;
4508;SDS011;2267;48.816;9.230;2023-07-16T09:14:55;4.03;;;1.93;;
4508;SDS011;2267;48.816;9.230;2023-07-16T09:17:23;3.83;;;1.90;;
4508;SDS011;2267;48.816;9.230;2023-07-16T09:19:51;2.60;;;1.80;;
4508;SDS011;2267;48.816;9.230;2023-07-16T09:22:19;2.70;;;1.67;;
4508;SDS011;2267;48.816;9.230;2023-07-16T09:24:46;3.30;;;1.50;;
4508;SDS011;2267;48.816;9.230;2023-07-16T09:27:14;3.30;;;1.80;;
4508;SDS011;2267;48.816;9.230;2023-07-16T09:29:41;3.40;;;1.70;;
4508;SDS011;2267;48.816;9.230;2023-07-16T09:32:08;3.60;;;2.00;;
4508;SDS011;2267;48.816;9.230;2023-07-16T09:34:35;2.83;;;1.60;;
4508;SDS011;2267;48.816;9.230;2023-07-16T09:37:04;3.60;;;1.50;;
4508;SDS011;2267;48.816;9.230;2023-07-16T09:39:32;4.30;;;1.90;;
4508;SDS011;2267;48.816;9.230;2023-07-16T09:41:59;3.47;;;2.07;;
4508;SDS011;2267;48.816;9.230;2023-07-16T09:44:29;3.80;;;1.80;;
4508;SDS011;2267;48.816;9.230;2023-07-16T09:46:57;4.13;;;1.73;;
4508;SDS011;2267;48.816;9.230;2023-07-16T09:49:25;3.17;;;1.80;;
4508;SDS011;2267;48.816;9.230;2023-07-16T09:51:56;2.87;;;1.80;;
4508;SDS011;2267;48.816;9.230;2023-07-16T09:54:24;2.80;;;2.20;;
4508;SDS011;2267;48.816;9.230;2023-07-16T09:56:54;2.67;;;1.90;;
4508;SDS011;2267;48.816;9.230;2023-07-16T09:59:26;2.60;;;1.37;;
4508;SDS011;2267;48.816;9.230;2023-07-16T10:01:55;3.23;;;1.73;;
4508;SDS011;2267;48.816;9.230;2023-07-16T10:04:23;2.83;;;1.50;;
4508;SDS011;2267;48.816;9.230;2023-07-16T10:07:00;3.07;;;1.70;;
4508;SDS011;2267;48.816;9.230;2023-07-16T10:09:50;2.90;;;1.70;;
4508;SDS011;2267;48.816;9.230;2023-07-16T10:12:24;2.73;;;1.97;;
4508;SDS011;2267;48.816;9.230;2023-07-16T10:14:52;2.93;;;1.77;;
4508;SDS011;2267;48.816;9.230;2023-07-16T10:17:23;3.50;;;1.80;;
4508;SDS011;2267;48.816;9.230;2023-07-16T10:19:57;3.00;;;1.67;;
4508;SDS011;2267;48.816;9.230;2023-07-16T10:22:33;2.77;;;1.70;;
4508;SDS011;2267;48.816;9.230;2023-07-16T10:27:45;4.40;;;1.73;;
4508;SDS011;2267;48.816;9.230;2023-07-16T10:30:13;2.83;;;1.80;;
4508;SDS011;2267;48.816;9.230;2023-07-16T10:32:40;3.20;;;1.63;;
4508;SDS011;2267;48.816;9.230;2023-07-16T10:35:09;3.13;;;1.80;;
4508;SDS011;2267;48.816;9.230;2023-07-16T10:37:37;4.53;;;2.63;;
4508;SDS011;2267;48.816;9.230;2023-07-16T10:40:09;3.97;;;2.47;;
4508;SDS011;2267;48.816;9.230;2023-07-16T10:42:39;4.60;;;2.10;;
4508;SDS011;2267;48.816;9.230;2023-07-16T10:45:08;5.90;;;1.87;;
4508;SDS011;2267;48.816;9.230;2023-07-16T10:47:36;3.10;;;1.90;;
4508;SDS011;2267;48.816;9.230;2023-07-16T10:50:05;3.33;;;2.20;;
4508;SDS011;2267;48.816;9.230;2023-07-16T10:52:34;3.40;;;1.90;;
4508;SDS011;2267;48.816;9.230;2023-07-16T10:55:02;4.20;;;1.90;;
4508;SDS011;2267;48.816;9.230;2023-07-16T10:57:29;4.97;;;2.37;;
4508;SDS011;2267;48.816;9.230;2023-07-16T10:59:57;4.33;;;2.73;;
4508;SDS011;2267;48.816;9.230;2023-07-16T11:02:25;3.40;;;2.70;;
4508;SDS011;2267;48.816;9.230;2023-07-16T11:04:52;3.57;;;2.00;;
4508;SDS011;2267;48.816;9.230;2023-07-16T11:07:20;3.97;;;2.00;;
4508;SDS011;2267;48.816;9.230;2023-07-16T11:09:48;4.30;;;2.20;;
4508;SDS011;2267;48.816;9.230;2023-07-16T11:12:17;2.47;;;1.77;;
4508;SDS011;2267;48.816;9.230;2023-07-16T11:14:52;3.67;;;2.20;;
4508;SDS011;2267;48.816;9.230;2023-07-16T11:17:21;4.53;;;1.93;;
4508;SDS011;2267;48.816;9.230;2023-07-16T11:19:52;5.07;;;2.17;;
4508;SDS011;2267;48.816;9.230;2023-07-16T11:22:20;4.30;;;2.00;;
4508;SDS011;2267;48.816;9.230;2023-07-16T11:24:54;2.90;;;2.40;;
4508;SDS011;2267;48.816;9.230;2023-07-16T11:29:58;4.13;;;2.07;;
4508;SDS011;2267;48.816;9.230;2023-07-16T11:32:35;11.57;;;10.73;;
4508;SDS011;2267;48.816;9.230;2023-07-16T11:35:03;8.47;;;7.07;;
4508;SDS011;2267;48.816;9.230;2023-07-16T11:37:32;6.63;;;5.10;;
4508;SDS011;2267;48.816;9.230;2023-07-16T11:40:06;3.80;;;2.90;;
4508;SDS011;2267;48.816;9.230;2023-07-16T11:42:36;3.60;;;2.23;;
4508;SDS011;2267;48.816;9.230;2023-07-16T11:45:05;3.07;;;2.40;;
4508;SDS011;2267;48.816;9.230;2023-07-16T11:47:41;3.50;;;2.93;;
4508;SDS011;2267;48.816;9.230;2023-07-16T11:50:10;4.30;;;2.47;;
4508;SDS011;2267;48.816;9.230;2023-07-16T11:52:38;4.47;;;2.50;;
4508;SDS011;2267;48.816;9.230;2023-07-16T11:55:05;2.67;;;1.77;;
4508;SDS011;2267;48.816;9.230;2023-07-16T11:57:32;2.53;;;1.70;;
4508;SDS011;2267;48.816;9.230;2023-07-16T12:00:00;3.60;;;2.00;;
4508;SDS011;2267;48.816;9.230;2023-07-16T12:02:26;4.20;;;1.97;;
4508;SDS011;2267;48.816;9.230;2023-07-16T12:04:55;3.77;;;2.10;;
4508;SDS011;2267;48.816;9.230;2023-07-16T12:10:18;2.20;;;1.50;;
4508;SDS011;2267;48.816;9.230;2023-07-16T12:12:45;2.77;;;2.00;;
4508;SDS011;2267;48.816;9.230;2023-07-16T12:15:12;3.57;;;1.90;;
4508;SDS011;2267;48.816;9.230;2023-07-16T12:17:38;2.67;;;1.87;;
4508;SDS011;2267;48.816;9.230;2023-07-16T12:20:05;2.80;;;1.70;;
4508;SDS011;2267;48.816;9.230;2023-07-16T12:22:33;3.70;;;1.87;;
4508;SDS011;2267;48.816;9.230;2023-07-16T12:25:00;4.30;;;2.10;;
4508;SDS011;2267;48.816;9.230;2023-07-16T12:27:27;3.30;;;1.83;;
4508;SDS011;2267;48.816;9.230;2023-07-16T12:29:54;3.20;;;1.73;;
4508;SDS011;2267;48.816;9.230;2023-07-16T12:32:21;3.00;;;2.00;;
4508;SDS011;2267;48.816;9.230;2023-07-16T12:34:47;3.53;;;2.07;;
4508;SDS011;2267;48.816;9.230;2023-07-16T12:37:14;3.67;;;1.80;;
4508;SDS011;2267;48.816;9.230;2023-07-16T12:39:43;2.50;;;1.97;;
4508;SDS011;2267;48.816;9.230;2023-07-16T12:42:10;2.80;;;1.90;;
4508;SDS011;2267;48.816;9.230;2023-07-16T12:44:36;2.90;;;1.77;;
4508;SDS011;2267;48.816;9.230;2023-07-16T12:47:03;3.03;;;1.90;;
4508;SDS011;2267;48.816;9.230;2023-07-16T12:49:31;2.90;;;1.50;;
4508;SDS011;2267;48.816;9.230;2023-07-16T12:51:58;4.13;;;2.00;;
4508;SDS011;2267;48.816;9.230;2023-07-16T12:54:25;2.77;;;1.77;;
4508;SDS011;2267;48.816;9.230;2023-07-16T12:56:51;3.63;;;2.03;;
4508;SDS011;2267;48.816;9.230;2023-07-16T12:59:18;2.73;;;1.70;;
4508;SDS011;2267;48.816;9.230;2023-07-16T13:01:45;3.33;;;2.30;;
4508;SDS011;2267;48.816;9.230;2023-07-16T13:04:12;3.27;;;1.70;;
4508;SDS011;2267;48.816;9.230;2023-07-16T13:06:39;3.00;;;1.90;;
4508;SDS011;2267;48.816;9.230;2023-07-16T13:09:06;2.90;;;2.07;;
4508;SDS011;2267;48.816;9.230;2023-07-16T13:11:33;5.53;;;1.80;;
4508;SDS011;2267;48.816;9.230;2023-07-16T13:14:00;3.40;;;2.10;;
4508;SDS011;2267;48.816;9.230;2023-07-16T13:16:27;2.63;;;1.90;;
4508;SDS011;2267;48.816;9.230;2023-07-16T13:18:54;3.10;;;2.00;;
4508;SDS011;2267;48.816;9.230;2023-07-16T13:21:21;4.80;;;1.80;;
4508;SDS011;2267;48.816;9.230;2023-07-16T13:23:48;3.43;;;1.77;;
4508;SDS011;2267;48.816;9.230;2023-07-16T13:26:14;3.77;;;1.90;;
4508;SDS011;2267;48.816;9.230;2023-07-16T13:28:42;3.63;;;2.43;;
4508;SDS011;2267;48.816;9.230;2023-07-16T13:31:09;2.70;;;1.80;;
4508;SDS011;2267;48.816;9.230;2023-07-16T13:33:36;2.87;;;1.97;;
4508;SDS011;2267;48.816;9.230;2023-07-16T13:36:02;2.60;;;2.13;;
4508;SDS011;2267;48.816;9.230;2023-07-16T13:38:30;2.97;;;2.03;;
4508;SDS011;2267;48.816;9.230;2023-07-16T13:40:57;3.67;;;1.90;;
4508;SDS011;2267;48.816;9.230;2023-07-16T13:43:24;2.60;;;1.73;;
4508;SDS011;2267;48.816;9.230;2023-07-16T13:45:51;4.10;;;2.20;;
4508;SDS011;2267;48.816;9.230;2023-07-16T13:48:18;2.40;;;1.47;;
4508;SDS011;2267;48.816;9.230;2023-07-16T13:50:45;2.83;;;1.70;;
4508;SDS011;2267;48.816;9.230;2023-07-16T13:53:12;2.90;;;2.20;;
4508;SDS011;2267;48.816;9.230;2023-07-16T13:55:38;4.97;;;2.30;;
4508;SDS011;2267;48.816;9.230;2023-07-16T13:58:05;4.27;;;2.03;;
4508;SDS011;2267;48.816;9.230;2023-07-16T14:00:32;2.67;;;1.70;;
4508;SDS011;2267;48.816;9.230;2023-07-16T14:02:59;3.20;;;1.80;;
4508;SDS011;2267;48.816;9.230;2023-07-16T14:05:27;3.40;;;1.90;;
4508;SDS011;2267;48.816;9.230;2023-07-16T14:07:54;3.33;;;1.70;;
4508;SDS011;2267;48.816;9.230;2023-07-16T14:10:20;3.50;;;2.23;;
4508;SDS011;2267;48.816;9.230;2023-07-16T14:12:47;2.40;;;1.67;;
4508;SDS011;2267;48.816;9.230;2023-07-16T14:15:14;3.70;;;2.03;;
4508;SDS011;2267;48.816;9.230;2023-07-16T14:17:44;5.30;;;2.23;;
4508;SDS011;2267;48.816;9.230;2023-07-16T14:20:11;2.57;;;1.83;;
4508;SDS011;2267;48.816;9.230;2023-07-16T14:22:38;3.67;;;1.80;;
4508;SDS011;2267;48.816;9.230;2023-07-16T14:25:04;2.67;;;1.60;;
4508;SDS011;2267;48.816;9.230;2023-07-16T14:27:32;2.30;;;1.63;;
4508;SDS011;2267;48.816;9.230;2023-07-16T14:29:59;2.57;;;1.73;;
4508;SDS011;2267;48.816;9.230;2023-07-16T14:32:32;2.70;;;1.80;;
4508;SDS011;2267;48.816;9.230;2023-07-16T14:35:00;3.60;;;1.60;;
4508;SDS011;2267;48.816;9.230;2023-07-16T14:37:27;3.53;;;2.13;;
4508;SDS011;2267;48.816;9.230;2023-07-16T14:39:54;3.27;;;1.70;;
4508;SDS011;2267;48.816;9.230;2023-07-16T14:42:21;3.27;;;1.73;;
4508;SDS011;2267;48.816;9.230;2023-07-16T14:44:48;3.13;;;1.80;;
4508;SDS011;2267;48.816;9.230;2023-07-16T14:47:15;2.50;;;1.70;;
4508;SDS011;2267;48.816;9.230;2023-07-16T14:49:43;3.57;;;1.67;;
4508;SDS011;2267;48.816;9.230;2023-07-16T14:52:09;2.50;;;1.50;;
4508;SDS011;2267;48.816;9.230;2023-07-16T14:54:36;2.60;;;1.80;;
4508;SDS011;2267;48.816;9.230;2023-07-16T14:57:03;3.53;;;1.80;;
4508;SDS011;2267;48.816;9.230;2023-07-16T14:59:31;2.53;;;1.77;;
4508;SDS011;2267;48.816;9.230;2023-07-16T15:01:58;3.70;;;2.00;;
4508;SDS011;2267;48.816;9.230;2023-07-16T15:04:25;2.67;;;1.67;;
4508;SDS011;2267;48.816;9.230;2023-07-16T15:06:51;2.50;;;2.17;;
4508;SDS011;2267;48.816;9.230;2023-07-16T15:09:18;3.03;;;2.10;;
4508;SDS011;2267;48.816;9.230;2023-07-16T15:11:45;4.83;;;2.70;;
4508;SDS011;2267;48.816;9.230;2023-07-16T15:14:12;3.33;;;2.10;;
4508;SDS011;2267;48.816;9.230;2023-07-16T15:16:39;5.00;;;2.60;;
4508;SDS011;2267;48.816;9.230;2023-07-16T15:19:06;4.43;;;1.70;;
4508;SDS011;2267;48.816;9.230;2023-07-16T15:21:35;3.10;;;2.00;;
4508;SDS011;2267;48.816;9.230;2023-07-16T15:24:05;3.57;;;2.10;;
4508;SDS011;2267;48.816;9.230;2023-07-16T15:26:32;2.87;;;2.00;;
4508;SDS011;2267;48.816;9.230;2023-07-16T15:28:59;4.50;;;2.73;;
4508;SDS011;2267;48.816;9.230;2023-07-16T15:31:26;2.50;;;1.97;;